Time;durP1;ratioP1;P1;durP2;ratioP2;P2;SDS_P1;SDS_P2;PMS_P1;PMS_P2;Temp;Humidity;BMP_temperature;BMP_pressure;BME280_temperature;BME280_humidity;BME280_pressure;Samples;Min_cycle;Max_cycle;Signal;HPM_P1;HPM_P2
2022/09/22 00:04:14;;;;;;;13.25;8.05;;;;;;;4.52;100.00;102199.75;12904462;22;20080;-87
2022/09/22 00:09:22;;;;;;;13.93;7.00;;;;;;;6.07;100.00;102413.28;12931214;22;20008;-90
2022/09/22 00:14:27;;;;;;;12.50;7.05;;;;;;;4.96;100.00;102279.06;12944335;22;20026;-90
2022/09/22 00:19:32;;;;;;;15.95;8.77;;;;;;;5.80;100.00;102423.78;12962321;22;20068;-90
2022/09/22 00:24:42;;;;;;;9.05;6.30;;;;;;;5.44;100.00;102345.19;12917415;22;20424;-87
2022/09/22 00:29:43;;;;;;;13.55;8.05;;;;;;;6.35;100.00;102553.03;12889888;22;20349;-88
2022/09/22 00:35:07;;;;;;;12.15;6.90;;;;;;;4.88;100.00;102281.84;12993405;22;25004;-90
2022/09/22 00:40:09;;;;;;;15.00;7.25;;;;;;;3.78;100.00;102141.13;12845061;22;20082;-90
2022/09/22 00:45:12;;;;;;;14.60;7.03;;;;;;;4.14;100.00;102177.88;12889458;22;20076;-88
2022/09/22 00:50:18;;;;;;;10.73;5.95;;;;;;;5.04;100.00;102298.09;12918092;22;20049;-88
2022/09/22 00:55:27;;;;;;;8.77;6.03;;;;;;;5.46;100.00;102367.72;12922015;22;20160;-88
2022/09/22 01:00:36;;;;;;;13.55;6.78;;;;;;;5.02;100.00;102294.72;12908567;22;20023;-89
2022/09/22 01:05:40;;;;;;;17.92;7.78;;;;;;;4.38;100.00;102174.97;12931619;22;20027;-89
2022/09/22 01:10:43;;;;;;;10.93;7.32;;;;;;;4.86;100.00;102251.16;12899718;22;19999;-90
2022/09/22 01:16:07;;;;;;;12.20;7.15;;;;;;;5.11;100.00;102311.03;12933315;22;20015;-90
2022/09/22 01:21:33;;;;;;;10.77;9.02;;;;;;;5.76;100.00;102408.78;12969145;22;20007;-89
2022/09/22 01:26:44;;;;;;;13.47;8.47;;;;;;;6.02;100.00;102407.56;12928529;22;20018;-90
2022/09/22 01:32:06;;;;;;;12.18;9.10;;;;;;;5.99;100.00;102410.66;12964022;22;20471;-90
2022/09/22 01:37:19;;;;;;;13.30;9.23;;;;;;;3.92;100.00;102125.84;12859437;22;20084;-89
2022/09/22 01:42:23;;;;;;;12.25;8.95;;;;;;;4.65;100.00;102213.63;12842304;22;20003;-91
2022/09/22 01:47:39;;;;;;;13.10;9.52;;;;;;;4.84;100.00;102234.13;12921383;22;20027;-88
2022/09/22 01:52:42;;;;;;;15.37;9.70;;;;;;;5.74;100.00;102421.78;12882090;22;20019;-90
2022/09/22 01:57:51;;;;;;;18.77;10.43;;;;;;;4.72;100.00;102260.13;12724405;22;20003;-89
2022/09/22 02:02:57;;;;;;;15.38;9.43;;;;;;;6.13;100.00;102467.25;12788545;22;20334;-88
2022/09/22 02:07:58;;;;;;;12.95;8.85;;;;;;;4.89;100.00;102299.91;12901159;22;20023;-91
2022/09/22 02:13:04;;;;;;;14.38;9.30;;;;;;;3.48;100.00;102082.03;12838968;22;20015;-90
2022/09/22 02:18:08;;;;;;;14.30;8.48;;;;;;;3.70;100.00;102108.47;12833195;22;20083;-90
2022/09/22 02:23:09;;;;;;;11.95;9.13;;;;;;;4.08;100.00;102175.84;12775380;22;20022;-88
2022/09/22 02:28:13;;;;;;;13.32;10.43;;;;;;;4.84;100.00;102337.81;12854153;22;20023;-88
2022/09/22 02:33:22;;;;;;;15.23;11.55;;;;;;;4.41;100.00;102242.78;12882615;22;20019;-88
2022/09/22 02:38:53;;;;;;;13.93;11.00;;;;;;;3.62;100.00;102144.75;12799982;22;20091;-90
2022/09/22 02:44:16;;;;;;;12.48;10.93;;;;;;;3.52;100.00;102083.38;12895133;22;20022;-89
2022/09/22 02:49:17;;;;;;;15.80;10.40;;;;;;;4.29;100.00;102211.50;12813599;22;20023;-87
2022/09/22 02:54:31;;;;;;;;;;;;;;;;;;;;;
2022/09/22 02:59:35;;;;;;;15.18;11.63;;;;;;;4.98;100.00;102361.59;12858072;22;20014;-90
2022/09/22 03:04:45;;;;;;;14.38;12.20;;;;;;;4.28;100.00;102207.09;12832030;22;20010;-89
2022/09/22 03:10:08;;;;;;;15.85;12.68;;;;;;;4.05;100.00;102212.47;12758122;22;21397;-87
2022/09/22 03:15:10;;;;;;;17.35;12.60;;;;;;;4.28;100.00;102181.69;12888416;22;20078;-87
2022/09/22 03:20:11;;;;;;;26.02;15.23;;;;;;;3.50;100.00;102063.66;12867232;22;20030;-90
2022/09/22 03:25:12;;;;;;;20.63;14.45;;;;;;;4.94;100.00;102291.16;12789213;22;20024;-90
2022/09/22 03:30:13;;;;;;;22.42;15.07;;;;;;;4.19;100.00;102194.50;12645776;23;20535;-90
2022/09/22 03:35:15;;;;;;;25.17;15.90;;;;;;;4.39;100.00;102216.72;12613780;23;20028;-90
2022/09/22 03:40:16;;;;;;;19.52;16.00;;;;;;;5.59;100.00;102399.03;12583426;22;20021;-91
2022/09/22 03:45:18;;;;;;;22.02;15.50;;;;;;;4.15;100.00;102182.28;12592416;23;21303;-89
2022/09/22 03:50:20;;;;;;;23.20;15.65;;;;;;;3.77;100.00;102112.16;12557593;23;20009;-91
2022/09/22 03:55:20;;;;;;;18.15;14.98;;;;;;;4.94;100.00;102383.97;12634039;23;20016;-89
2022/09/22 04:00:22;;;;;;;20.25;13.85;;;;;;;4.80;100.00;102312.75;12689510;23;20024;-91
2022/09/22 04:05:26;;;;;;;17.50;14.95;;;;;;;3.98;100.00;102165.19;12622740;23;20044;-91
2022/09/22 04:10:29;;;;;;;21.65;16.55;;;;;;;4.92;100.00;102365.06;12571198;23;20005;-89
2022/09/22 04:15:30;;;;;;;17.23;14.88;;;;;;;5.36;100.00;102446.31;12707531;23;21098;-88
2022/09/22 04:20:31;;;;;;;22.88;15.45;;;;;;;3.53;100.00;102155.84;12610304;23;20076;-91
2022/09/22 04:25:34;;;;;;;21.55;15.75;;;;;;;4.23;100.00;102221.22;12765992;22;20053;-87
2022/09/22 04:30:35;;;;;;;19.65;15.13;;;;;;;3.67;100.00;102151.53;12978295;22;20006;-91
2022/09/22 04:35:39;;;;;;;21.58;15.85;;;;;;;4.70;100.00;102335.84;12903615;22;20061;-92
2022/09/22 04:40:44;;;;;;;26.70;17.80;;;;;;;5.20;100.00;102408.19;12897410;22;20453;-88
2022/09/22 04:45:47;;;;;;;23.42;16.30;;;;;;;4.71;100.00;102334.81;12850749;22;20403;-89
2022/09/22 04:50:48;;;;;;;22.77;16.50;;;;;;;5.04;100.00;102400.97;12927495;22;20337;-91
2022/09/22 04:55:53;;;;;;;22.17;17.45;;;;;;;4.17;100.00;102237.47;12820840;22;20067;-91
2022/09/22 05:00:59;;;;;;;23.60;18.27;;;;;;;3.29;100.00;102127.72;12868408;22;20085;-90
2022/09/22 05:06:00;;;;;;;32.78;18.92;;;;;;;4.18;100.00;102248.19;12906148;22;20032;-91
2022/09/22 05:11:08;;;;;;;23.70;18.10;;;;;;;3.33;100.00;102107.28;12922557;22;20013;-91
2022/09/22 05:16:09;;;;;;;23.08;18.27;;;;;;;3.84;100.00;102230.31;12907118;22;20019;-89
2022/09/22 05:21:10;;;;;;;25.17;18.65;;;;;;;3.26;100.00;102095.38;12945916;22;20542;-89
2022/09/22 05:26:15;;;;;;;26.23;19.35;;;;;;;3.90;100.00;102189.75;13003213;22;20084;-91
2022/09/22 05:31:16;;;;;;;24.48;18.58;;;;;;;4.30;100.00;102275.03;13009093;22;20014;-91
2022/09/22 05:36:17;;;;;;;24.20;18.48;;;;;;;3.80;100.00;102177.19;12913161;22;20034;-90
2022/09/22 05:41:18;;;;;;;23.35;18.55;;;;;;;4.75;100.00;102330.69;12821400;22;20070;-90
2022/09/22 05:46:21;;;;;;;20.60;17.77;;;;;;;3.31;100.00;102127.50;13001975;22;20060;-90
2022/09/22 05:51:22;;;;;;;20.48;18.27;;;;;;;2.63;100.00;102008.19;12938280;22;20011;-90
2022/09/22 05:56:22;;;;;;;25.95;18.10;;;;;;;3.37;100.00;102103.19;12999728;22;20014;-89
2022/09/22 06:01:25;;;;;;;31.45;22.73;;;;;;;3.90;100.00;102217.81;12997104;22;20003;-89
2022/09/22 06:06:26;;;;;;;31.98;23.05;;;;;;;3.46;100.00;102078.63;12946687;22;20011;-91
2022/09/22 06:11:36;;;;;;;32.72;23.67;;;;;;;3.22;100.00;102026.88;12895262;22;20014;-93
2022/09/22 06:16:46;;;;;;;29.55;23.38;;;;;;;4.42;100.00;102192.69;12861159;22;20015;-91
2022/09/22 06:21:47;;;;;;;31.52;24.65;;;;;;;5.25;100.00;102283.75;12969925;22;20011;-91
2022/09/22 06:26:48;;;;;;;28.98;22.08;;;;;;;4.29;100.00;102060.72;12971165;22;20460;-90
2022/09/22 06:31:48;;;;;;;28.02;21.52;;;;;;;4.44;100.00;102054.28;12838417;22;20491;-90
2022/09/22 06:36:49;;;;;;;26.10;20.45;;;;;;;6.36;100.00;102329.56;12892047;22;20026;-88
2022/09/22 06:41:49;;;;;;;24.55;20.38;;;;;;;5.18;100.00;102097.13;12826023;22;19998;-88
2022/09/22 06:46:50;;;;;;;20.80;17.38;;;;;;;5.21;100.00;102057.72;12926764;22;20002;-91
2022/09/22 06:51:51;;;;;;;18.27;15.85;;;;;;;6.23;100.00;102199.81;12823862;22;20008;-88
2022/09/22 06:56:57;;;;;;;19.63;15.57;;;;;;;5.67;100.00;102084.75;12850133;22;20173;-85
2022/09/22 07:01:57;;;;;;;20.30;14.80;;;;;;;7.24;100.00;102306.53;12906359;22;20005;-85
2022/09/22 07:06:58;;;;;;;18.60;15.98;;;;;;;6.90;100.00;102238.78;12766785;22;20233;-87
2022/09/22 07:12:01;;;;;;;21.00;15.05;;;;;;;7.73;100.00;102347.81;12790233;22;20339;-89
2022/09/22 07:17:04;;;;;;;20.88;15.43;;;;;;;7.54;100.00;102300.00;12769766;22;20012;-86
2022/09/22 07:22:05;;;;;;;18.02;14.25;;;;;;;7.81;100.00;102293.69;12784661;22;20082;-87
2022/09/22 07:27:06;;;;;;;18.00;14.35;;;;;;;6.75;100.00;102098.44;13015209;22;20035;-87
2022/09/22 07:32:06;;;;;;;15.65;12.43;;;;;;;7.89;100.00;102295.41;12934842;22;20489;-87
2022/09/22 07:37:10;;;;;;;18.23;11.27;;;;;;;7.39;100.00;102155.75;13038983;22;20007;-87
2022/09/22 07:42:13;;;;;;;13.30;11.60;;;;;;;7.62;100.00;102198.44;12944458;22;20007;-86
2022/09/22 07:48:34;;;;;;;11.45;9.70;;;;;;;7.47;100.00;102150.09;12913847;22;20021;-87
2022/09/22 07:52:40;;;;;;;12.07;9.57;;;;;;;7.70;100.00;102134.41;12923751;22;20076;-87
2022/09/22 07:57:41;;;;;;;18.95;10.60;;;;;;;8.92;100.00;102333.88;12926998;22;20043;-86
2022/09/22 08:02:54;;;;;;;;;;;;;;;;;;;;;
2022/09/22 08:07:57;;;;;;;12.32;8.70;;;;;;;8.60;100.00;102212.78;13010281;22;19995;-86
2022/09/22 08:12:59;;;;;;;11.20;7.70;;;;;;;9.25;100.00;102286.38;12969017;22;20348;-85
2022/09/22 08:18:03;;;;;;;12.75;9.65;;;;;;;8.19;100.00;102109.44;12957114;22;20018;-86
2022/09/22 08:23:04;;;;;;;14.77;9.80;;;;;;;9.53;100.00;102275.16;12969910;22;20083;-86
2022/09/22 08:28:04;;;;;;;10.60;8.25;;;;;;;9.18;100.00;102159.16;12995747;22;20018;-85
2022/09/22 08:33:06;;;;;;;11.25;6.82;;;;;;;9.44;100.00;102185.72;12999138;22;20021;-85
2022/09/22 08:38:09;;;;;;;8.15;6.72;;;;;;;10.15;100.00;102242.63;12992724;22;20006;-86
2022/09/22 08:43:11;;;;;;;10.05;6.15;;;;;;;11.05;100.00;102363.78;12977123;22;20023;-86
2022/09/22 08:53:37;;;;;;;7.43;5.60;;;;;;;10.04;100.00;102108.47;13014914;22;20013;-85
2022/09/22 08:58:48;;;;;;;7.68;5.28;;;;;;;10.32;100.00;102043.97;13022263;22;20010;-86
2022/09/22 09:04:15;;;;;;;10.63;5.13;;;;;;;12.66;100.00;102357.69;12961571;22;20003;-86
2022/09/22 09:09:28;;;;;;;8.20;4.65;;;;;;;12.49;100.00;102255.25;13061356;22;20078;-88
2022/09/22 09:15:04;;;;;;;11.35;4.80;;;;;;;13.43;100.00;102357.03;12961514;22;20033;-85
2022/09/22 09:20:29;;;;;;;7.07;4.32;;;;;;;13.85;100.00;102343.97;13003675;22;20049;-85
2022/09/22 09:25:37;;;;;;;9.25;4.45;;;;;;;14.22;100.00;102334.53;13037801;22;20025;-86
2022/09/22 09:30:51;;;;;;;7.00;3.78;;;;;;;13.62;100.00;102209.22;13049577;22;20333;-86
2022/09/22 09:35:52;;;;;;;5.78;3.42;;;;;;;14.48;100.00;102297.97;13039142;22;20075;-85
2022/09/22 09:41:13;;;;;;;8.20;3.00;;;;;;;14.47;100.00;102217.84;13051449;22;20430;-89
2022/09/22 09:46:37;;;;;;;5.22;2.83;;;;;;;14.40;100.00;102161.78;13000437;22;20083;-88
2022/09/22 09:51:39;;;;;;;9.50;3.00;;;;;;;14.48;100.00;102103.19;13012688;22;20078;-89
2022/09/22 09:57:02;;;;;;;4.30;2.70;;;;;;;16.03;100.00;102298.75;12998428;22;20019;-89
2022/09/22 10:02:03;;;;;;;4.65;2.22;;;;;;;15.64;100.00;102209.88;13035878;22;20003;-88
2022/09/22 10:07:15;;;;;;;5.38;2.45;;;;;;;14.59;100.00;101996.13;12997534;22;20027;-88
2022/09/22 10:12:29;;;;;;;7.38;2.50;;;;;;;15.36;100.00;102130.34;12956272;22;20464;-89
2022/09/22 10:17:32;;;;;;;5.63;2.70;;;;;;;15.12;100.00;102045.41;13021015;22;20018;-87
2022/09/22 10:22:33;;;;;;;6.45;2.42;;;;;;;15.85;100.00;102142.41;12972529;22;20006;-87
2022/09/22 10:27:34;;;;;;;4.15;2.00;;;;;;;15.71;99.59;102088.38;12974733;22;20038;-90
2022/09/22 10:32:34;;;;;;;7.93;2.03;;;;;;;16.32;100.00;102155.72;13015005;22;20469;-89
2022/09/22 10:37:37;;;;;;;5.35;1.67;;;;;;;16.62;97.16;102171.06;13025573;22;19995;-88
2022/09/22 10:42:42;;;;;;;3.30;1.58;;;;;;;16.82;92.48;102164.03;13002783;22;20060;-88
2022/09/22 10:48:06;;;;;;;4.78;1.90;;;;;;;17.10;91.35;102133.09;12982150;22;20480;-89
2022/09/22 10:53:28;;;;;;;5.60;1.67;;;;;;;16.66;83.38;102044.31;13014275;22;20112;-89
2022/09/22 10:58:56;;;;;;;3.97;2.00;;;;;;;16.58;83.16;102052.28;12916288;22;20517;-89
2022/09/22 11:04:26;;;;;;;6.45;2.03;;;;;;;17.85;81.10;102218.47;12967339;22;20033;-89
2022/09/22 11:14:54;;;;;;;4.78;1.92;;;;;;;18.05;81.37;102156.44;12989380;22;20017;-88
2022/09/22 11:20:21;;;;;;;7.57;2.47;;;;;;;18.31;79.62;102096.84;13030294;22;20052;-89
2022/09/22 11:25:38;;;;;;;6.25;2.40;;;;;;;18.60;80.47;102202.28;12951268;22;20023;-89
2022/09/22 11:30:51;;;;;;;5.77;2.30;;;;;;;17.61;76.48;102054.59;13038248;22;20404;-88
2022/09/22 11:36:21;;;;;;;5.85;2.15;;;;;;;19.28;77.07;102185.28;12956047;22;20033;-92
2022/09/22 11:41:44;;;;;;;5.18;2.50;;;;;;;19.39;73.29;102172.16;12978265;22;20069;-92
2022/09/22 11:47:06;;;;;;;5.50;2.45;;;;;;;17.09;75.70;101880.97;12932920;22;20368;-93
2022/09/22 11:52:18;;;;;;;4.85;2.63;;;;;;;18.44;73.37;102034.13;12908365;22;20011;-89
2022/09/22 11:57:22;;;;;;;3.50;2.40;;;;;;;18.98;72.52;102013.16;12905597;22;20006;-93
2022/09/22 12:03:00;;;;;;;5.25;2.88;;;;;;;19.97;69.46;102146.56;12874998;22;19999;-88
2022/09/22 12:08:44;;;;;;;;;;;;;;;;;;;;;
2022/09/22 12:20:01;;;;;;;7.80;2.78;;;;;;;21.94;57.63;102042.50;12842941;22;20016;-93
2022/09/22 12:25:44;;;;;;;5.07;2.22;;;;;;;19.13;64.96;101890.28;12805750;22;20516;-92
2022/09/22 12:31:20;;;;;;;5.53;2.53;;;;;;;19.41;59.87;101875.84;12952027;22;20015;-92
2022/09/22 12:36:37;;;;;;;7.60;2.43;;;;;;;19.78;60.91;101961.13;12789486;22;20371;-89
2022/09/22 12:41:56;;;;;;;3.03;2.03;;;;;;;18.80;62.25;101955.16;12870311;22;20007;-89
2022/09/22 12:47:04;;;;;;;5.28;2.00;;;;;;;18.45;66.61;101991.16;13003411;22;20045;-83
2022/09/22 12:52:56;;;;;;;7.05;2.10;;;;;;;19.63;68.04;102119.28;13037175;22;20052;-89
2022/09/22 12:58:01;;;;;;;4.78;2.58;;;;;;;20.58;60.71;101917.91;13032714;22;20040;-89
2022/09/22 13:03:23;;;;;;;7.70;2.25;;;;;;;23.34;57.07;102075.47;13021818;22;20007;-88
2022/09/22 13:08:29;;;;;;;3.83;2.10;;;;;;;23.45;54.53;102003.84;13067082;22;20031;-88
2022/09/22 13:13:35;;;;;;;11.05;2.90;;;;;;;22.05;54.24;101972.22;12975264;22;20361;-95
2022/09/22 13:18:44;;;;;;;8.63;2.45;;;;;;;20.30;56.08;101928.81;12896663;22;20018;-92
2022/09/22 13:24:11;;;;;;;9.23;2.45;;;;;;;22.33;56.88;102061.00;12795656;22;20019;-95
2022/09/22 13:29:36;;;;;;;6.35;1.75;;;;;;;24.01;55.51;102049.56;12998160;22;20025;-90
2022/09/22 13:34:38;;;;;;;4.53;2.13;;;;;;;23.41;50.66;101896.03;13029340;22;20097;-92
2022/09/22 13:39:40;;;;;;;4.88;1.52;;;;;;;23.62;52.25;101802.78;12995872;22;20011;-92
2022/09/22 13:44:42;;;;;;;5.57;2.47;;;;;;;24.08;49.07;101863.47;12896661;22;20476;-95
2022/09/22 13:49:50;;;;;;;7.32;2.40;;;;;;;23.63;50.93;101846.63;12988281;22;20447;-90
2022/09/22 13:55:00;;;;;;;6.35;2.53;;;;;;;22.19;52.93;101768.38;12991895;22;20098;-94
2022/09/22 14:00:01;;;;;;;32.53;6.22;;;;;;;24.24;50.11;101980.06;12959565;22;19995;-96
2022/09/22 14:05:06;;;;;;;4.43;2.00;;;;;;;23.56;50.28;101831.03;12894442;22;20014;-94
2022/09/22 14:10:12;;;;;;;3.20;1.60;;;;;;;23.95;46.99;101815.41;12992100;22;20010;-95
2022/09/22 14:15:42;;;;;;;8.30;2.20;;;;;;;25.21;47.00;101937.16;12863562;22;20504;-96
2022/09/22 14:20:43;;;;;;;3.22;1.77;;;;;;;24.84;46.26;101826.69;13001940;22;20026;-95
2022/09/22 14:25:46;;;;;;;4.72;1.95;;;;;;;25.12;46.45;101817.94;12933573;22;20403;-96
2022/09/22 14:30:49;;;;;;;3.22;1.85;;;;;;;24.24;46.83;101738.09;12825859;22;20011;-95
2022/09/22 14:36:13;;;;;;;4.75;1.90;;;;;;;24.43;45.75;101802.53;12790156;22;20025;-95
2022/09/22 14:41:36;;;;;;;5.22;2.22;;;;;;;24.29;46.84;101881.47;12831637;22;20029;-95
2022/09/22 14:46:40;;;;;;;5.45;1.98;;;;;;;23.15;47.52;101783.41;12709095;22;20005;-95
2022/09/22 14:51:42;;;;;;;5.10;1.80;;;;;;;22.02;50.10;101811.06;12820916;22;20031;-94
2022/09/22 14:56:43;;;;;;;4.97;2.30;;;;;;;20.00;53.73;101834.91;12901119;22;20030;-93
2022/09/22 15:07:24;;;;;;;5.55;1.80;;;;;;;17.78;62.11;101813.97;12898699;22;20066;-93
2022/09/22 15:12:35;;;;;;;3.17;1.67;;;;;;;18.73;63.96;102009.25;12769673;22;20047;-92
2022/09/22 15:23:06;;;;;;;6.10;1.58;;;;;;;17.17;66.43;101753.56;12854118;22;20454;-90
2022/09/22 15:34:25;;;;;;;;;;;;;;;;;;;;;
2022/09/22 15:39:36;;;;;;;7.97;1.55;;;;;;;17.85;63.84;101795.88;12827036;22;20004;-89
2022/09/22 15:45:00;;;;;;;3.92;1.23;;;;;;;17.64;67.01;101836.00;12626614;23;20017;-94
2022/09/22 15:50:26;;;;;;;4.97;1.48;;;;;;;16.09;70.37;101687.41;12705907;22;20522;-94
2022/09/22 15:55:26;;;;;;;3.97;1.27;;;;;;;16.84;71.69;101855.88;12783103;22;20043;-89
2022/09/22 16:00:39;;;;;;;;;;;;;;;;;;;;;
2022/09/22 16:06:25;;;;;;;6.25;1.65;;;;;;;15.13;78.20;101675.44;12720626;22;20016;-92
2022/09/22 16:12:11;;;;;;;4.47;1.42;;;;;;;15.21;79.48;101678.81;12693634;22;20002;-96
2022/09/22 16:17:12;;;;;;;5.70;1.50;;;;;;;16.26;82.12;101912.25;12723682;22;20007;-90
2022/09/22 16:22:34;;;;;;;8.02;1.83;;;;;;;16.11;85.96;101959.38;12889707;22;20023;-92
2022/09/22 16:27:53;;;;;;;5.38;2.00;;;;;;;14.62;86.02;101735.97;12759574;22;20043;-94
2022/09/22 16:33:06;;;;;;;8.90;1.85;;;;;;;14.89;90.58;101852.41;12683328;22;20029;-91
2022/09/22 16:38:38;;;;;;;9.05;2.40;;;;;;;15.34;94.46;101933.63;12579794;22;20057;-93
2022/09/22 16:44:31;;;;;;;10.25;2.80;;;;;;;15.47;100.00;102023.97;12767619;22;20101;-93
2022/09/22 16:49:42;;;;;;;8.40;2.35;;;;;;;13.47;100.00;101768.97;12597021;23;20018;-91
2022/09/22 16:55:36;;;;;;;11.38;2.65;;;;;;;12.91;100.00;101713.53;12407694;23;20584;-91
2022/09/22 17:01:13;;;;;;;;;;;;;;;;;;;;;
2022/09/22 17:06:54;;;;;;;;;;;;;;;;;;;;;
2022/09/22 17:12:41;;;;;;;9.25;2.63;;;;;;;11.97;100.00;101733.22;12145045;23;20022;-90
2022/09/22 17:17:47;;;;;;;7.32;2.30;;;;;;;12.20;100.00;101846.38;12190021;23;20108;-91
2022/09/22 17:22:58;;;;;;;7.30;2.92;;;;;;;12.22;100.00;101833.19;12227580;23;20086;-91
2022/09/22 17:28:05;;;;;;;7.30;3.25;;;;;;;11.44;100.00;101755.19;12539190;22;20079;-92
2022/09/22 17:33:11;;;;;;;9.88;3.58;;;;;;;11.07;100.00;101744.34;12843783;22;20023;-91
2022/09/22 17:38:12;;;;;;;8.40;3.28;;;;;;;12.06;100.00;101938.78;12880689;22;20037;-87
2022/09/22 17:43:14;;;;;;;6.70;3.92;;;;;;;10.61;100.00;101729.34;12859287;22;20057;-88
2022/09/22 17:58:53;;;;;;;8.23;3.72;;;;;;;9.84;100.00;101727.13;12843302;22;20009;-91
2022/09/22 18:03:54;;;;;;;6.43;3.97;;;;;;;9.85;100.00;101739.78;12861205;22;20048;-90
2022/09/22 18:14:56;;;;;;;;;;;;;;;;;;;;;
2022/09/22 18:27:53;;;;;;;;;;;;;;;;;;;;;
2022/09/22 18:46:33;;;;;;;9.60;6.15;;;;;;;9.64;100.00;101877.72;11950974;24;20017;-93
2022/09/22 18:51:43;;;;;;;8.85;6.57;;;;;;;9.55;100.00;101857.03;12349991;23;20006;-94
2022/09/22 18:56:52;;;;;;;10.88;6.03;;;;;;;10.41;100.00;102040.69;12412072;23;20465;-93
2022/09/22 19:02:04;;;;;;;10.57;7.18;;;;;;;8.60;100.00;101735.16;12595303;23;20043;-92
2022/09/22 19:07:48;;;;;;;9.85;6.63;;;;;;;10.27;100.00;101998.66;12738741;23;20454;-94
2022/09/22 19:12:52;;;;;;;8.00;7.18;;;;;;;8.42;100.00;101713.91;12637312;23;20020;-94
2022/09/22 19:18:06;;;;;;;15.27;8.07;;;;;;;8.80;100.00;101787.19;12700999;22;20046;-93
2022/09/22 19:23:40;;;;;;;11.73;8.30;;;;;;;8.96;100.00;101818.78;12698395;22;20019;-93
2022/09/22 19:28:43;;;;;;;13.70;8.02;;;;;;;7.75;100.00;101672.22;12818423;22;20009;-93
2022/09/22 19:33:43;;;;;;;9.68;7.70;;;;;;;8.44;100.00;101747.47;12754549;22;20024;-89
2022/09/22 19:38:44;;;;;;;12.35;8.68;;;;;;;9.75;100.00;101992.47;12817976;22;20015;-90
2022/09/22 19:43:46;;;;;;;10.32;8.25;;;;;;;7.87;100.00;101703.38;12825038;22;20039;-89
2022/09/22 19:48:47;;;;;;;13.25;8.38;;;;;;;8.15;100.00;101758.97;12801386;23;20016;-90
2022/09/22 19:53:48;;;;;;;12.07;8.70;;;;;;;7.87;100.00;101718.97;12796652;23;20088;-89
2022/09/22 19:58:50;;;;;;;11.52;8.80;;;;;;;8.62;100.00;101856.56;12816853;23;20015;-89
2022/09/22 20:03:50;;;;;;;14.02;9.63;;;;;;;7.38;100.00;101644.50;12783564;23;20009;-93
2022/09/22 20:08:51;;;;;;;10.80;9.10;;;;;;;7.91;100.00;101738.59;12787855;23;20004;-90
2022/09/22 20:19:11;;;;;;;19.02;10.95;;;;;;;7.07;100.00;101639.69;12847665;22;1202606;-91
2022/09/22 20:24:14;;;;;;;13.35;11.02;;;;;;;8.43;100.00;101862.94;12884951;22;20012;-86
2022/09/22 20:29:15;;;;;;;16.08;12.05;;;;;;;8.67;100.00;101886.09;12870234;22;20414;-89
2022/09/22 20:34:17;;;;;;;13.43;11.40;;;;;;;7.70;100.00;101740.53;12889890;22;20015;-91
2022/09/22 20:39:20;;;;;;;16.23;12.38;;;;;;;7.54;100.00;101757.41;12859252;22;20079;-90
2022/09/22 20:44:21;;;;;;;15.35;11.90;;;;;;;8.02;100.00;101839.38;12918446;22;20016;-91
2022/09/22 20:49:21;;;;;;;13.60;12.23;;;;;;;8.48;100.00;101896.09;12868205;22;20082;-89
2022/09/22 20:54:25;;;;;;;13.40;11.93;;;;;;;7.93;100.00;101805.84;12844322;22;20078;-91
2022/09/22 20:59:26;;;;;;;15.77;12.13;;;;;;;8.13;100.00;101860.66;12880113;22;20481;-90
2022/09/22 21:04:27;;;;;;;13.27;11.57;;;;;;;7.37;100.00;101716.75;12810280;22;20014;-90
2022/09/22 21:14:47;;;;;;;15.23;12.65;;;;;;;7.20;100.00;101701.81;12878321;22;20079;-91
2022/09/22 21:19:48;;;;;;;15.65;12.60;;;;;;;6.55;100.00;101616.75;12877095;22;20096;-91
2022/09/22 21:24:48;;;;;;;16.05;13.70;;;;;;;6.46;100.00;101629.78;12888607;22;20050;-91
2022/09/22 21:29:52;;;;;;;19.17;13.32;;;;;;;7.22;100.00;101713.41;12860734;22;20485;-91
2022/09/22 21:34:53;;;;;;;14.95;13.20;;;;;;;7.63;100.00;101794.53;12874519;22;20032;-89
2022/09/22 21:39:53;;;;;;;16.00;14.30;;;;;;;7.17;100.00;101730.47;12863027;22;20043;-90
2022/09/22 21:44:54;;;;;;;17.42;15.52;;;;;;;5.96;100.00;101507.09;12884076;22;20054;-91
2022/09/22 21:49:54;;;;;;;17.50;15.80;;;;;;;8.33;100.00;101909.16;12845385;22;20545;-92
2022/09/22 21:54:55;;;;;;;24.95;15.27;;;;;;;6.09;100.00;101544.53;12873043;22;20019;-89
2022/09/22 21:59:56;;;;;;;22.33;13.77;;;;;;;6.60;100.00;101609.59;12873210;22;20007;-90
2022/09/22 22:04:56;;;;;;;15.20;13.60;;;;;;;6.66;100.00;101658.00;12895024;22;20020;-90
2022/09/22 22:09:57;;;;;;;17.40;15.27;;;;;;;7.26;100.00;101747.53;12888058;22;20008;-90
2022/09/22 22:14:57;;;;;;;19.80;15.95;;;;;;;7.25;100.00;101715.72;12858304;22;20054;-90
2022/09/22 22:20:01;;;;;;;20.02;15.90;;;;;;;7.74;100.00;101815.78;12825928;22;20149;-88
2022/09/22 22:25:03;;;;;;;17.70;15.93;;;;;;;7.43;100.00;101762.47;12898244;22;20019;-87
2022/09/22 22:30:04;;;;;;;21.75;15.80;;;;;;;7.22;100.00;101706.03;12921745;22;20146;-89
2022/09/22 22:35:06;;;;;;;24.40;15.68;;;;;;;7.24;100.00;101703.09;12875291;22;20019;-90
2022/09/22 22:40:07;;;;;;;23.63;17.02;;;;;;;7.12;100.00;101655.50;12880387;22;20034;-90
2022/09/22 22:45:10;;;;;;;22.17;16.85;;;;;;;6.97;100.00;101648.34;12877395;22;20012;-90
2022/09/22 22:50:10;;;;;;;24.08;17.70;;;;;;;7.14;100.00;101669.81;12888616;22;20088;-90
2022/09/22 22:55:12;;;;;;;21.77;18.88;;;;;;;7.98;100.00;101822.53;12889083;22;20026;-88
2022/09/22 23:00:12;;;;;;;20.80;17.77;;;;;;;6.60;100.00;101593.19;12911117;22;20066;-90
2022/09/22 23:05:13;;;;;;;20.00;17.90;;;;;;;7.01;100.00;101659.72;12874794;22;20073;-87
2022/09/22 23:10:14;;;;;;;25.85;18.50;;;;;;;7.51;100.00;101763.34;12897892;22;20469;-87
2022/09/22 23:15:15;;;;;;;22.42;18.67;;;;;;;7.32;100.00;101716.56;12888071;22;20022;-88
2022/09/22 23:20:15;;;;;;;24.35;18.38;;;;;;;8.09;100.00;101816.38;12904355;22;20003;-88
2022/09/22 23:25:16;;;;;;;22.02;19.35;;;;;;;6.98;100.00;101638.22;12891258;22;20003;-88
2022/09/22 23:30:17;;;;;;;21.95;18.73;;;;;;;7.37;100.00;101748.78;12890811;22;20000;-88
2022/09/22 23:35:17;;;;;;;28.52;19.42;;;;;;;6.76;100.00;101607.47;12892760;22;20031;-87
2022/09/22 23:40:18;;;;;;;25.67;20.10;;;;;;;6.82;100.00;101634.00;12915532;22;20016;-87
2022/09/22 23:45:19;;;;;;;26.20;21.55;;;;;;;6.79;100.00;101623.50;12880969;22;20019;-88
2022/09/22 23:50:22;;;;;;;24.00;19.52;;;;;;;6.52;100.00;101608.97;12916871;22;20015;-88
2022/09/22 23:55:22;;;;;;;26.83;20.80;;;;;;;6.31;100.00;101558.03;12916125;22;20012;-87
